Terminal Aerodrome Forecast
Issued by NWS Twin Cities, MN

Home | Current Version | Previous Version | Graphics & Text | Print | Product List | Glossary On
Versions: 1 2 3 4 5 6 7 8 9 10 11 12 13 14 15 16 17 18 19 20
000
FTUS43 KMPX 040520
TAFSTC
TAF
KSTC 040520Z 0406/0506 VRB03KT 2SM BR HZ OVC040
     FM040800 VRB03KT 1SM BR HZ BKN250
      TEMPO 0409/0413 1/2SM FG HZ
     FM041400 13004KT 3SM HZ SCT050 BKN250
     FM042100 19007KT 6SM HZ BKN250=

USA.gov is the U.S. government's official web portal to all federal, state and local government web resources and services.